sensor_id;sensor_type;location;lat;lon;timestamp;P1;durP1;ratioP1;P2;durP2;ratioP2
16685;SDS011;8456;51.136;4.210;2022-08-03T00:01:57;7.73;;;2.17;;
16685;SDS011;8456;51.136;4.210;2022-08-03T00:04:23;5.83;;;2.37;;
16685;SDS011;8456;51.136;4.210;2022-08-03T00:06:49;8.27;;;2.60;;
16685;SDS011;8456;51.136;4.210;2022-08-03T00:09:15;5.67;;;2.43;;
16685;SDS011;8456;51.136;4.210;2022-08-03T00:11:41;5.70;;;2.27;;
16685;SDS011;8456;51.136;4.210;2022-08-03T00:14:07;4.07;;;2.10;;
16685;SDS011;8456;51.136;4.210;2022-08-03T00:16:33;9.10;;;2.40;;
16685;SDS011;8456;51.136;4.210;2022-08-03T00:18:59;6.27;;;2.23;;
16685;SDS011;8456;51.136;4.210;2022-08-03T00:21:25;5.67;;;2.50;;
16685;SDS011;8456;51.136;4.210;2022-08-03T00:23:52;6.70;;;2.40;;
16685;SDS011;8456;51.136;4.210;2022-08-03T00:26:21;10.17;;;2.43;;
16685;SDS011;8456;51.136;4.210;2022-08-03T00:28:47;9.00;;;2.80;;
16685;SDS011;8456;51.136;4.210;2022-08-03T00:31:13;7.50;;;2.40;;
16685;SDS011;8456;51.136;4.210;2022-08-03T00:33:39;7.50;;;2.97;;
16685;SDS011;8456;51.136;4.210;2022-08-03T00:36:05;4.27;;;2.50;;
16685;SDS011;8456;51.136;4.210;2022-08-03T00:38:31;4.43;;;2.33;;
16685;SDS011;8456;51.136;4.210;2022-08-03T00:40:57;6.10;;;2.40;;
16685;SDS011;8456;51.136;4.210;2022-08-03T00:43:25;6.07;;;2.70;;
16685;SDS011;8456;51.136;4.210;2022-08-03T00:45:51;7.43;;;2.70;;
16685;SDS011;8456;51.136;4.210;2022-08-03T00:48:18;5.00;;;2.67;;
16685;SDS011;8456;51.136;4.210;2022-08-03T00:50:44;8.10;;;2.73;;
16685;SDS011;8456;51.136;4.210;2022-08-03T00:53:12;7.10;;;2.70;;
16685;SDS011;8456;51.136;4.210;2022-08-03T00:55:39;7.60;;;2.23;;
16685;SDS011;8456;51.136;4.210;2022-08-03T00:58:06;5.20;;;2.30;;
16685;SDS011;8456;51.136;4.210;2022-08-03T01:00:33;7.83;;;2.23;;
16685;SDS011;8456;51.136;4.210;2022-08-03T01:03:00;10.07;;;2.70;;
16685;SDS011;8456;51.136;4.210;2022-08-03T01:05:27;5.37;;;1.97;;
16685;SDS011;8456;51.136;4.210;2022-08-03T01:08:05;7.90;;;2.23;;
16685;SDS011;8456;51.136;4.210;2022-08-03T01:13:28;7.03;;;2.23;;
16685;SDS011;8456;51.136;4.210;2022-08-03T01:18:37;5.67;;;1.97;;
16685;SDS011;8456;51.136;4.210;2022-08-03T01:21:11;5.63;;;2.03;;
16685;SDS011;8456;51.136;4.210;2022-08-03T01:23:51;7.43;;;2.50;;
16685;SDS011;8456;51.136;4.210;2022-08-03T01:32:01;4.67;;;2.10;;
16685;SDS011;8456;51.136;4.210;2022-08-03T01:34:32;7.03;;;2.07;;
16685;SDS011;8456;51.136;4.210;2022-08-03T01:37:02;6.97;;;2.40;;
16685;SDS011;8456;51.136;4.210;2022-08-03T01:39:30;7.73;;;2.20;;
16685;SDS011;8456;51.136;4.210;2022-08-03T01:41:59;4.80;;;2.07;;
16685;SDS011;8456;51.136;4.210;2022-08-03T01:44:32;5.20;;;2.03;;
16685;SDS011;8456;51.136;4.210;2022-08-03T01:47:01;6.03;;;2.40;;
16685;SDS011;8456;51.136;4.210;2022-08-03T01:49:32;7.70;;;2.83;;
16685;SDS011;8456;51.136;4.210;2022-08-03T01:52:02;8.70;;;2.10;;
16685;SDS011;8456;51.136;4.210;2022-08-03T01:54:33;5.33;;;1.80;;
16685;SDS011;8456;51.136;4.210;2022-08-03T01:57:02;6.90;;;2.13;;
16685;SDS011;8456;51.136;4.210;2022-08-03T01:59:28;5.57;;;1.70;;
16685;SDS011;8456;51.136;4.210;2022-08-03T02:01:56;6.97;;;2.23;;
16685;SDS011;8456;51.136;4.210;2022-08-03T02:04:24;9.50;;;2.27;;
16685;SDS011;8456;51.136;4.210;2022-08-03T02:06:51;6.90;;;3.00;;
16685;SDS011;8456;51.136;4.210;2022-08-03T02:09:19;7.50;;;2.40;;
16685;SDS011;8456;51.136;4.210;2022-08-03T02:11:46;6.43;;;2.13;;
16685;SDS011;8456;51.136;4.210;2022-08-03T02:14:13;8.50;;;2.40;;
16685;SDS011;8456;51.136;4.210;2022-08-03T02:16:42;13.37;;;2.20;;
16685;SDS011;8456;51.136;4.210;2022-08-03T02:19:10;11.93;;;2.70;;
16685;SDS011;8456;51.136;4.210;2022-08-03T02:21:36;6.27;;;2.27;;
16685;SDS011;8456;51.136;4.210;2022-08-03T02:24:03;7.77;;;2.27;;
16685;SDS011;8456;51.136;4.210;2022-08-03T02:26:30;7.40;;;2.30;;
16685;SDS011;8456;51.136;4.210;2022-08-03T02:28:58;5.43;;;2.20;;
16685;SDS011;8456;51.136;4.210;2022-08-03T02:31:28;7.37;;;2.33;;
16685;SDS011;8456;51.136;4.210;2022-08-03T02:33:58;7.87;;;2.07;;
16685;SDS011;8456;51.136;4.210;2022-08-03T02:36:28;10.90;;;2.77;;
16685;SDS011;8456;51.136;4.210;2022-08-03T02:38:57;7.13;;;2.37;;
16685;SDS011;8456;51.136;4.210;2022-08-03T02:41:34;6.73;;;1.97;;
16685;SDS011;8456;51.136;4.210;2022-08-03T02:44:09;6.70;;;2.03;;
16685;SDS011;8456;51.136;4.210;2022-08-03T02:46:37;8.53;;;2.50;;
16685;SDS011;8456;51.136;4.210;2022-08-03T02:49:04;6.10;;;1.93;;
16685;SDS011;8456;51.136;4.210;2022-08-03T02:51:32;8.70;;;2.60;;
16685;SDS011;8456;51.136;4.210;2022-08-03T02:54:03;4.70;;;2.07;;
16685;SDS011;8456;51.136;4.210;2022-08-03T02:56:30;9.57;;;2.27;;
16685;SDS011;8456;51.136;4.210;2022-08-03T02:58:57;8.83;;;2.57;;
16685;SDS011;8456;51.136;4.210;2022-08-03T03:01:25;4.97;;;2.40;;
16685;SDS011;8456;51.136;4.210;2022-08-03T03:03:54;5.13;;;2.20;;
16685;SDS011;8456;51.136;4.210;2022-08-03T03:06:21;6.03;;;2.13;;
16685;SDS011;8456;51.136;4.210;2022-08-03T03:08:49;7.23;;;2.30;;
16685;SDS011;8456;51.136;4.210;2022-08-03T03:11:17;9.87;;;2.90;;
16685;SDS011;8456;51.136;4.210;2022-08-03T03:13:46;4.60;;;1.97;;
16685;SDS011;8456;51.136;4.210;2022-08-03T03:16:14;11.03;;;2.57;;
16685;SDS011;8456;51.136;4.210;2022-08-03T03:18:41;4.97;;;2.00;;
16685;SDS011;8456;51.136;4.210;2022-08-03T03:21:09;7.53;;;2.20;;
16685;SDS011;8456;51.136;4.210;2022-08-03T03:23:36;7.97;;;2.70;;
16685;SDS011;8456;51.136;4.210;2022-08-03T03:26:03;6.03;;;2.30;;
16685;SDS011;8456;51.136;4.210;2022-08-03T03:28:29;6.13;;;2.40;;
16685;SDS011;8456;51.136;4.210;2022-08-03T03:30:56;7.63;;;2.47;;
16685;SDS011;8456;51.136;4.210;2022-08-03T03:33:22;8.37;;;2.57;;
16685;SDS011;8456;51.136;4.210;2022-08-03T03:35:49;7.83;;;2.97;;
16685;SDS011;8456;51.136;4.210;2022-08-03T03:38:16;7.03;;;2.17;;
16685;SDS011;8456;51.136;4.210;2022-08-03T03:40:42;8.03;;;2.90;;
16685;SDS011;8456;51.136;4.210;2022-08-03T03:43:11;6.87;;;2.27;;
16685;SDS011;8456;51.136;4.210;2022-08-03T03:45:39;6.77;;;2.40;;
16685;SDS011;8456;51.136;4.210;2022-08-03T03:48:06;8.07;;;2.40;;
16685;SDS011;8456;51.136;4.210;2022-08-03T03:50:33;6.27;;;2.33;;
16685;SDS011;8456;51.136;4.210;2022-08-03T03:53:00;7.60;;;2.37;;
16685;SDS011;8456;51.136;4.210;2022-08-03T03:55:26;7.87;;;2.30;;
16685;SDS011;8456;51.136;4.210;2022-08-03T03:57:53;8.47;;;2.30;;
16685;SDS011;8456;51.136;4.210;2022-08-03T04:00:19;8.33;;;3.10;;
16685;SDS011;8456;51.136;4.210;2022-08-03T04:02:45;5.80;;;2.30;;
16685;SDS011;8456;51.136;4.210;2022-08-03T04:05:11;7.77;;;3.30;;
16685;SDS011;8456;51.136;4.210;2022-08-03T04:07:58;11.87;;;2.80;;
16685;SDS011;8456;51.136;4.210;2022-08-03T04:10:53;10.83;;;3.00;;
16685;SDS011;8456;51.136;4.210;2022-08-03T04:13:23;8.93;;;3.00;;
16685;SDS011;8456;51.136;4.210;2022-08-03T04:15:55;8.80;;;2.80;;
16685;SDS011;8456;51.136;4.210;2022-08-03T04:18:22;8.30;;;2.97;;
16685;SDS011;8456;51.136;4.210;2022-08-03T04:20:51;5.23;;;2.77;;
16685;SDS011;8456;51.136;4.210;2022-08-03T04:23:20;7.17;;;2.90;;
16685;SDS011;8456;51.136;4.210;2022-08-03T04:25:48;7.80;;;2.80;;
16685;SDS011;8456;51.136;4.210;2022-08-03T04:28:16;10.73;;;2.93;;
16685;SDS011;8456;51.136;4.210;2022-08-03T04:30:44;10.43;;;3.03;;
16685;SDS011;8456;51.136;4.210;2022-08-03T04:33:13;9.03;;;2.50;;
16685;SDS011;8456;51.136;4.210;2022-08-03T04:35:40;10.60;;;2.80;;
16685;SDS011;8456;51.136;4.210;2022-08-03T04:38:08;7.57;;;2.50;;
16685;SDS011;8456;51.136;4.210;2022-08-03T04:40:38;9.27;;;2.70;;
16685;SDS011;8456;51.136;4.210;2022-08-03T04:43:07;8.97;;;3.20;;
16685;SDS011;8456;51.136;4.210;2022-08-03T04:45:35;7.53;;;2.50;;
16685;SDS011;8456;51.136;4.210;2022-08-03T04:48:02;8.57;;;2.77;;
16685;SDS011;8456;51.136;4.210;2022-08-03T04:50:29;10.30;;;3.27;;
16685;SDS011;8456;51.136;4.210;2022-08-03T04:53:04;8.03;;;2.73;;
16685;SDS011;8456;51.136;4.210;2022-08-03T04:55:31;8.30;;;2.23;;
16685;SDS011;8456;51.136;4.210;2022-08-03T04:57:58;8.03;;;2.93;;
16685;SDS011;8456;51.136;4.210;2022-08-03T05:00:25;12.03;;;2.70;;
16685;SDS011;8456;51.136;4.210;2022-08-03T05:02:51;8.93;;;2.33;;
16685;SDS011;8456;51.136;4.210;2022-08-03T05:05:20;12.57;;;3.13;;
16685;SDS011;8456;51.136;4.210;2022-08-03T05:07:46;8.80;;;2.90;;
16685;SDS011;8456;51.136;4.210;2022-08-03T05:10:14;9.90;;;2.50;;
16685;SDS011;8456;51.136;4.210;2022-08-03T05:12:40;8.13;;;2.40;;
16685;SDS011;8456;51.136;4.210;2022-08-03T05:15:06;11.03;;;2.60;;
16685;SDS011;8456;51.136;4.210;2022-08-03T05:17:32;7.93;;;2.97;;
16685;SDS011;8456;51.136;4.210;2022-08-03T05:19:58;9.13;;;2.27;;
16685;SDS011;8456;51.136;4.210;2022-08-03T05:22:25;8.57;;;3.07;;
16685;SDS011;8456;51.136;4.210;2022-08-03T05:24:51;8.37;;;2.90;;
16685;SDS011;8456;51.136;4.210;2022-08-03T05:27:17;8.83;;;2.70;;
16685;SDS011;8456;51.136;4.210;2022-08-03T05:29:43;5.73;;;2.80;;
16685;SDS011;8456;51.136;4.210;2022-08-03T05:32:10;8.43;;;2.70;;
16685;SDS011;8456;51.136;4.210;2022-08-03T05:34:36;7.87;;;2.30;;
16685;SDS011;8456;51.136;4.210;2022-08-03T05:37:02;7.77;;;2.33;;
16685;SDS011;8456;51.136;4.210;2022-08-03T05:39:28;6.73;;;2.47;;
16685;SDS011;8456;51.136;4.210;2022-08-03T05:41:54;8.30;;;2.77;;
16685;SDS011;8456;51.136;4.210;2022-08-03T05:44:19;6.83;;;2.67;;
16685;SDS011;8456;51.136;4.210;2022-08-03T05:46:46;9.07;;;2.77;;
16685;SDS011;8456;51.136;4.210;2022-08-03T05:49:12;9.70;;;2.30;;
16685;SDS011;8456;51.136;4.210;2022-08-03T05:51:37;11.90;;;2.60;;
16685;SDS011;8456;51.136;4.210;2022-08-03T05:54:03;9.77;;;2.70;;
16685;SDS011;8456;51.136;4.210;2022-08-03T05:56:29;9.83;;;2.80;;
16685;SDS011;8456;51.136;4.210;2022-08-03T05:58:55;13.20;;;2.50;;
16685;SDS011;8456;51.136;4.210;2022-08-03T06:01:20;10.90;;;2.77;;
16685;SDS011;8456;51.136;4.210;2022-08-03T06:03:47;10.60;;;2.40;;
16685;SDS011;8456;51.136;4.210;2022-08-03T06:06:14;10.97;;;2.83;;
16685;SDS011;8456;51.136;4.210;2022-08-03T06:08:41;9.23;;;2.43;;
16685;SDS011;8456;51.136;4.210;2022-08-03T06:11:07;6.40;;;2.37;;
16685;SDS011;8456;51.136;4.210;2022-08-03T06:13:34;10.80;;;2.37;;
16685;SDS011;8456;51.136;4.210;2022-08-03T06:16:00;7.47;;;2.30;;
16685;SDS011;8456;51.136;4.210;2022-08-03T06:18:26;10.87;;;1.87;;
16685;SDS011;8456;51.136;4.210;2022-08-03T06:20:52;9.20;;;2.23;;
16685;SDS011;8456;51.136;4.210;2022-08-03T06:23:18;6.50;;;2.00;;
16685;SDS011;8456;51.136;4.210;2022-08-03T06:25:44;14.07;;;2.27;;
16685;SDS011;8456;51.136;4.210;2022-08-03T06:28:10;7.68;;;2.47;;
16685;SDS011;8456;51.136;4.210;2022-08-03T06:30:38;9.07;;;2.00;;
16685;SDS011;8456;51.136;4.210;2022-08-03T06:33:05;10.50;;;2.47;;
16685;SDS011;8456;51.136;4.210;2022-08-03T06:35:31;7.88;;;2.33;;
16685;SDS011;8456;51.136;4.210;2022-08-03T06:37:57;10.07;;;2.25;;
16685;SDS011;8456;51.136;4.210;2022-08-03T06:40:23;7.72;;;2.10;;
16685;SDS011;8456;51.136;4.210;2022-08-03T06:42:54;9.27;;;2.00;;
16685;SDS011;8456;51.136;4.210;2022-08-03T06:45:20;7.32;;;2.00;;
16685;SDS011;8456;51.136;4.210;2022-08-03T06:47:46;11.60;;;2.10;;
16685;SDS011;8456;51.136;4.210;2022-08-03T06:50:12;9.73;;;1.85;;
16685;SDS011;8456;51.136;4.210;2022-08-03T06:52:38;9.95;;;1.90;;
16685;SDS011;8456;51.136;4.210;2022-08-03T06:55:04;9.57;;;2.03;;
16685;SDS011;8456;51.136;4.210;2022-08-03T06:57:30;8.95;;;1.92;;
16685;SDS011;8456;51.136;4.210;2022-08-03T06:59:56;9.35;;;1.95;;
16685;SDS011;8456;51.136;4.210;2022-08-03T07:02:26;8.48;;;2.10;;
16685;SDS011;8456;51.136;4.210;2022-08-03T07:04:53;6.43;;;2.03;;
16685;SDS011;8456;51.136;4.210;2022-08-03T07:07:18;8.68;;;2.35;;
16685;SDS011;8456;51.136;4.210;2022-08-03T07:09:44;8.95;;;1.95;;
16685;SDS011;8456;51.136;4.210;2022-08-03T07:12:12;9.00;;;2.03;;
16685;SDS011;8456;51.136;4.210;2022-08-03T07:14:37;9.50;;;1.80;;
16685;SDS011;8456;51.136;4.210;2022-08-03T07:17:03;8.98;;;1.98;;
16685;SDS011;8456;51.136;4.210;2022-08-03T07:19:29;6.28;;;1.88;;
16685;SDS011;8456;51.136;4.210;2022-08-03T07:21:55;5.35;;;2.05;;
16685;SDS011;8456;51.136;4.210;2022-08-03T07:24:23;6.13;;;1.80;;
16685;SDS011;8456;51.136;4.210;2022-08-03T07:26:49;6.65;;;1.95;;
16685;SDS011;8456;51.136;4.210;2022-08-03T07:29:15;6.80;;;1.65;;
16685;SDS011;8456;51.136;4.210;2022-08-03T07:31:41;7.90;;;2.10;;
16685;SDS011;8456;51.136;4.210;2022-08-03T07:34:06;6.32;;;2.10;;
16685;SDS011;8456;51.136;4.210;2022-08-03T07:36:32;8.77;;;2.35;;
16685;SDS011;8456;51.136;4.210;2022-08-03T07:38:58;12.23;;;2.55;;
16685;SDS011;8456;51.136;4.210;2022-08-03T07:41:24;7.72;;;2.03;;
16685;SDS011;8456;51.136;4.210;2022-08-03T07:43:49;8.73;;;2.03;;
16685;SDS011;8456;51.136;4.210;2022-08-03T07:46:15;5.70;;;2.05;;
16685;SDS011;8456;51.136;4.210;2022-08-03T07:48:41;12.00;;;2.47;;
16685;SDS011;8456;51.136;4.210;2022-08-03T07:51:08;10.98;;;2.20;;
16685;SDS011;8456;51.136;4.210;2022-08-03T07:53:33;9.20;;;2.30;;
16685;SDS011;8456;51.136;4.210;2022-08-03T07:55:59;9.02;;;2.40;;
16685;SDS011;8456;51.136;4.210;2022-08-03T07:58:25;7.43;;;2.20;;
16685;SDS011;8456;51.136;4.210;2022-08-03T08:00:51;8.60;;;2.13;;
16685;SDS011;8456;51.136;4.210;2022-08-03T08:03:17;6.95;;;1.92;;
16685;SDS011;8456;51.136;4.210;2022-08-03T08:05:43;12.23;;;2.35;;
16685;SDS011;8456;51.136;4.210;2022-08-03T08:08:09;8.50;;;2.42;;
16685;SDS011;8456;51.136;4.210;2022-08-03T08:10:35;14.00;;;2.65;;
16685;SDS011;8456;51.136;4.210;2022-08-03T08:13:01;9.85;;;2.33;;
16685;SDS011;8456;51.136;4.210;2022-08-03T08:15:28;11.48;;;2.28;;
16685;SDS011;8456;51.136;4.210;2022-08-03T08:17:55;14.80;;;2.75;;
16685;SDS011;8456;51.136;4.210;2022-08-03T08:20:23;7.60;;;2.35;;
16685;SDS011;8456;51.136;4.210;2022-08-03T08:22:51;9.07;;;2.05;;
16685;SDS011;8456;51.136;4.210;2022-08-03T08:25:17;11.82;;;2.30;;
16685;SDS011;8456;51.136;4.210;2022-08-03T08:27:44;7.03;;;2.25;;
16685;SDS011;8456;51.136;4.210;2022-08-03T08:30:12;11.45;;;2.80;;
16685;SDS011;8456;51.136;4.210;2022-08-03T08:32:39;5.93;;;2.00;;
16685;SDS011;8456;51.136;4.210;2022-08-03T08:35:06;10.93;;;2.65;;
16685;SDS011;8456;51.136;4.210;2022-08-03T08:37:33;8.57;;;2.45;;
16685;SDS011;8456;51.136;4.210;2022-08-03T08:39:59;14.60;;;2.67;;
16685;SDS011;8456;51.136;4.210;2022-08-03T08:42:25;10.57;;;2.28;;
16685;SDS011;8456;51.136;4.210;2022-08-03T08:44:51;10.32;;;2.80;;
16685;SDS011;8456;51.136;4.210;2022-08-03T08:47:22;9.07;;;2.35;;
16685;SDS011;8456;51.136;4.210;2022-08-03T08:49:53;13.10;;;2.13;;
16685;SDS011;8456;51.136;4.210;2022-08-03T08:52:21;12.95;;;2.15;;
16685;SDS011;8456;51.136;4.210;2022-08-03T08:54:49;15.75;;;2.60;;
16685;SDS011;8456;51.136;4.210;2022-08-03T08:57:25;11.75;;;2.60;;
16685;SDS011;8456;51.136;4.210;2022-08-03T08:59:54;11.43;;;2.72;;
16685;SDS011;8456;51.136;4.210;2022-08-03T09:02:27;13.70;;;2.90;;
16685;SDS011;8456;51.136;4.210;2022-08-03T09:04:54;12.48;;;2.90;;
16685;SDS011;8456;51.136;4.210;2022-08-03T09:07:21;13.50;;;2.78;;
16685;SDS011;8456;51.136;4.210;2022-08-03T09:09:47;9.02;;;2.10;;
16685;SDS011;8456;51.136;4.210;2022-08-03T09:12:13;11.75;;;2.20;;
16685;SDS011;8456;51.136;4.210;2022-08-03T09:14:39;9.23;;;2.50;;
16685;SDS011;8456;51.136;4.210;2022-08-03T09:17:05;13.75;;;2.97;;
16685;SDS011;8456;51.136;4.210;2022-08-03T09:19:31;10.13;;;2.42;;
16685;SDS011;8456;51.136;4.210;2022-08-03T09:22:08;11.00;;;2.55;;
16685;SDS011;8456;51.136;4.210;2022-08-03T09:24:37;9.27;;;2.17;;
16685;SDS011;8456;51.136;4.210;2022-08-03T09:27:17;7.65;;;2.15;;
16685;SDS011;8456;51.136;4.210;2022-08-03T09:29:46;10.77;;;2.35;;
16685;SDS011;8456;51.136;4.210;2022-08-03T09:32:13;8.50;;;2.10;;
16685;SDS011;8456;51.136;4.210;2022-08-03T09:34:40;7.32;;;2.17;;
16685;SDS011;8456;51.136;4.210;2022-08-03T09:37:13;5.97;;;1.80;;
16685;SDS011;8456;51.136;4.210;2022-08-03T09:39:40;9.27;;;2.40;;
16685;SDS011;8456;51.136;4.210;2022-08-03T09:42:07;14.07;;;2.28;;
16685;SDS011;8456;51.136;4.210;2022-08-03T09:44:36;9.52;;;2.20;;
16685;SDS011;8456;51.136;4.210;2022-08-03T09:47:04;9.43;;;2.42;;
16685;SDS011;8456;51.136;4.210;2022-08-03T09:49:30;13.20;;;2.40;;
16685;SDS011;8456;51.136;4.210;2022-08-03T09:51:58;10.88;;;2.35;;
16685;SDS011;8456;51.136;4.210;2022-08-03T09:54:30;7.00;;;1.88;;
16685;SDS011;8456;51.136;4.210;2022-08-03T09:56:57;9.07;;;1.73;;
16685;SDS011;8456;51.136;4.210;2022-08-03T09:59:24;5.85;;;1.83;;
16685;SDS011;8456;51.136;4.210;2022-08-03T10:01:53;7.63;;;2.08;;
16685;SDS011;8456;51.136;4.210;2022-08-03T10:04:19;11.65;;;2.25;;
16685;SDS011;8456;51.136;4.210;2022-08-03T10:07:05;11.48;;;2.13;;
16685;SDS011;8456;51.136;4.210;2022-08-03T10:09:33;7.20;;;1.83;;
16685;SDS011;8456;51.136;4.210;2022-08-03T10:12:06;7.60;;;1.75;;
16685;SDS011;8456;51.136;4.210;2022-08-03T10:14:37;8.60;;;2.22;;
16685;SDS011;8456;51.136;4.210;2022-08-03T10:17:04;6.43;;;1.98;;
16685;SDS011;8456;51.136;4.210;2022-08-03T10:19:30;7.30;;;1.98;;
16685;SDS011;8456;51.136;4.210;2022-08-03T10:21:57;8.80;;;2.13;;
16685;SDS011;8456;51.136;4.210;2022-08-03T10:24:28;12.73;;;2.03;;
16685;SDS011;8456;51.136;4.210;2022-08-03T10:27:16;7.03;;;2.13;;
16685;SDS011;8456;51.136;4.210;2022-08-03T10:29:44;8.50;;;1.70;;
16685;SDS011;8456;51.136;4.210;2022-08-03T10:32:18;6.75;;;2.00;;
16685;SDS011;8456;51.136;4.210;2022-08-03T10:34:58;5.53;;;1.48;;
16685;SDS011;8456;51.136;4.210;2022-08-03T10:37:31;9.35;;;2.03;;
16685;SDS011;8456;51.136;4.210;2022-08-03T10:40:00;4.82;;;1.27;;
16685;SDS011;8456;51.136;4.210;2022-08-03T10:42:27;6.85;;;1.50;;
16685;SDS011;8456;51.136;4.210;2022-08-03T10:45:05;7.93;;;1.60;;
16685;SDS011;8456;51.136;4.210;2022-08-03T10:47:33;8.75;;;1.55;;
16685;SDS011;8456;51.136;4.210;2022-08-03T10:50:00;8.00;;;1.90;;
16685;SDS011;8456;51.136;4.210;2022-08-03T10:52:30;5.50;;;1.60;;
16685;SDS011;8456;51.136;4.210;2022-08-03T10:54:56;6.95;;;1.60;;
16685;SDS011;8456;51.136;4.210;2022-08-03T10:57:48;8.48;;;1.55;;
16685;SDS011;8456;51.136;4.210;2022-08-03T11:05:34;8.02;;;1.85;;
16685;SDS011;8456;51.136;4.210;2022-08-03T11:10:42;6.80;;;1.50;;
16685;SDS011;8456;51.136;4.210;2022-08-03T11:13:08;4.88;;;1.20;;
16685;SDS011;8456;51.136;4.210;2022-08-03T11:15:34;7.95;;;1.70;;
16685;SDS011;8456;51.136;4.210;2022-08-03T11:18:08;5.35;;;1.67;;
16685;SDS011;8456;51.136;4.210;2022-08-03T11:23:15;6.22;;;1.98;;
16685;SDS011;8456;51.136;4.210;2022-08-03T11:28:33;4.30;;;1.42;;
16685;SDS011;8456;51.136;4.210;2022-08-03T11:34:03;7.72;;;1.50;;
16685;SDS011;8456;51.136;4.210;2022-08-03T11:36:30;5.10;;;1.52;;
16685;SDS011;8456;51.136;4.210;2022-08-03T11:39:38;4.65;;;1.42;;
16685;SDS011;8456;51.136;4.210;2022-08-03T11:44:49;6.28;;;1.38;;
16685;SDS011;8456;51.136;4.210;2022-08-03T11:47:16;6.60;;;1.40;;
16685;SDS011;8456;51.136;4.210;2022-08-03T11:49:47;7.03;;;1.30;;
16685;SDS011;8456;51.136;4.210;2022-08-03T11:52:14;4.95;;;1.48;;
16685;SDS011;8456;51.136;4.210;2022-08-03T11:54:41;5.00;;;1.25;;
16685;SDS011;8456;51.136;4.210;2022-08-03T11:57:07;4.10;;;1.25;;
16685;SDS011;8456;51.136;4.210;2022-08-03T11:59:34;8.13;;;1.35;;
16685;SDS011;8456;51.136;4.210;2022-08-03T12:02:11;11.80;;;1.70;;
16685;SDS011;8456;51.136;4.210;2022-08-03T12:04:53;4.53;;;1.35;;
16685;SDS011;8456;51.136;4.210;2022-08-03T12:07:22;4.85;;;1.30;;
16685;SDS011;8456;51.136;4.210;2022-08-03T12:10:04;5.85;;;1.35;;
16685;SDS011;8456;51.136;4.210;2022-08-03T12:12:31;8.32;;;1.40;;
16685;SDS011;8456;51.136;4.210;2022-08-03T12:14:57;5.45;;;1.33;;
16685;SDS011;8456;51.136;4.210;2022-08-03T12:17:23;3.65;;;1.17;;
16685;SDS011;8456;51.136;4.210;2022-08-03T12:19:56;6.97;;;1.10;;
16685;SDS011;8456;51.136;4.210;2022-08-03T12:24:58;5.63;;;1.10;;
16685;SDS011;8456;51.136;4.210;2022-08-03T12:27:24;8.02;;;1.42;;
16685;SDS011;8456;51.136;4.210;2022-08-03T12:29:53;2.90;;;0.95;;
16685;SDS011;8456;51.136;4.210;2022-08-03T12:32:20;4.57;;;1.20;;
16685;SDS011;8456;51.136;4.210;2022-08-03T12:34:47;7.22;;;1.80;;
16685;SDS011;8456;51.136;4.210;2022-08-03T12:37:13;4.10;;;1.30;;
16685;SDS011;8456;51.136;4.210;2022-08-03T12:39:43;5.70;;;1.00;;
16685;SDS011;8456;51.136;4.210;2022-08-03T12:42:18;1.65;;;0.70;;
16685;SDS011;8456;51.136;4.210;2022-08-03T12:44:44;4.93;;;1.30;;
16685;SDS011;8456;51.136;4.210;2022-08-03T12:47:10;4.32;;;1.23;;
16685;SDS011;8456;51.136;4.210;2022-08-03T12:49:52;4.97;;;1.20;;
16685;SDS011;8456;51.136;4.210;2022-08-03T12:52:19;4.50;;;1.10;;
16685;SDS011;8456;51.136;4.210;2022-08-03T12:54:56;5.93;;;1.13;;
16685;SDS011;8456;51.136;4.210;2022-08-03T12:57:23;5.25;;;1.20;;
16685;SDS011;8456;51.136;4.210;2022-08-03T12:59:49;6.43;;;1.13;;
16685;SDS011;8456;51.136;4.210;2022-08-03T13:02:20;3.00;;;1.00;;
16685;SDS011;8456;51.136;4.210;2022-08-03T13:04:48;3.10;;;1.20;;
16685;SDS011;8456;51.136;4.210;2022-08-03T13:07:15;3.58;;;1.30;;
16685;SDS011;8456;51.136;4.210;2022-08-03T13:09:48;10.15;;;1.00;;
16685;SDS011;8456;51.136;4.210;2022-08-03T13:12:17;2.15;;;1.00;;
16685;SDS011;8456;51.136;4.210;2022-08-03T13:14:45;3.42;;;1.10;;
16685;SDS011;8456;51.136;4.210;2022-08-03T13:17:13;6.28;;;1.13;;
16685;SDS011;8456;51.136;4.210;2022-08-03T13:19:40;5.40;;;1.75;;
16685;SDS011;8456;51.136;4.210;2022-08-03T13:22:11;2.85;;;1.00;;
16685;SDS011;8456;51.136;4.210;2022-08-03T13:24:41;3.92;;;1.35;;
16685;SDS011;8456;51.136;4.210;2022-08-03T13:27:07;2.53;;;1.10;;
16685;SDS011;8456;51.136;4.210;2022-08-03T13:29:33;5.72;;;1.00;;
16685;SDS011;8456;51.136;4.210;2022-08-03T13:32:00;3.65;;;1.05;;
16685;SDS011;8456;51.136;4.210;2022-08-03T13:34:26;4.03;;;1.10;;
16685;SDS011;8456;51.136;4.210;2022-08-03T13:36:52;3.28;;;1.08;;
16685;SDS011;8456;51.136;4.210;2022-08-03T13:39:18;5.28;;;1.27;;
16685;SDS011;8456;51.136;4.210;2022-08-03T13:41:46;6.55;;;1.45;;
16685;SDS011;8456;51.136;4.210;2022-08-03T13:44:13;4.70;;;0.90;;
16685;SDS011;8456;51.136;4.210;2022-08-03T13:46:38;6.97;;;1.13;;
16685;SDS011;8456;51.136;4.210;2022-08-03T13:49:05;6.45;;;1.38;;
16685;SDS011;8456;51.136;4.210;2022-08-03T13:51:31;4.30;;;1.35;;
16685;SDS011;8456;51.136;4.210;2022-08-03T13:53:57;3.33;;;0.90;;
16685;SDS011;8456;51.136;4.210;2022-08-03T13:56:24;4.32;;;1.50;;
16685;SDS011;8456;51.136;4.210;2022-08-03T13:58:50;5.13;;;1.45;;
16685;SDS011;8456;51.136;4.210;2022-08-03T14:01:16;4.47;;;1.30;;
16685;SDS011;8456;51.136;4.210;2022-08-03T14:03:42;2.35;;;1.00;;
16685;SDS011;8456;51.136;4.210;2022-08-03T14:06:09;3.47;;;1.38;;
16685;SDS011;8456;51.136;4.210;2022-08-03T14:08:34;2.95;;;1.20;;
16685;SDS011;8456;51.136;4.210;2022-08-03T14:11:00;3.35;;;1.20;;
16685;SDS011;8456;51.136;4.210;2022-08-03T14:13:26;8.73;;;1.00;;
16685;SDS011;8456;51.136;4.210;2022-08-03T14:15:52;2.50;;;1.05;;
16685;SDS011;8456;51.136;4.210;2022-08-03T14:18:20;3.53;;;1.15;;
16685;SDS011;8456;51.136;4.210;2022-08-03T14:20:46;5.70;;;1.00;;
16685;SDS011;8456;51.136;4.210;2022-08-03T14:23:12;4.90;;;1.00;;
16685;SDS011;8456;51.136;4.210;2022-08-03T14:25:38;5.55;;;1.60;;
16685;SDS011;8456;51.136;4.210;2022-08-03T14:28:05;4.97;;;1.20;;
16685;SDS011;8456;51.136;4.210;2022-08-03T14:30:32;6.55;;;1.23;;
16685;SDS011;8456;51.136;4.210;2022-08-03T14:32:58;3.22;;;0.93;;
16685;SDS011;8456;51.136;4.210;2022-08-03T14:35:23;4.45;;;0.95;;
16685;SDS011;8456;51.136;4.210;2022-08-03T14:37:49;3.80;;;0.93;;
16685;SDS011;8456;51.136;4.210;2022-08-03T14:40:16;3.72;;;1.48;;
16685;SDS011;8456;51.136;4.210;2022-08-03T14:42:42;2.33;;;0.90;;
16685;SDS011;8456;51.136;4.210;2022-08-03T14:45:08;6.57;;;1.00;;
16685;SDS011;8456;51.136;4.210;2022-08-03T14:47:34;5.30;;;1.30;;
16685;SDS011;8456;51.136;4.210;2022-08-03T14:50:00;3.33;;;1.00;;
16685;SDS011;8456;51.136;4.210;2022-08-03T14:52:28;3.25;;;1.00;;
16685;SDS011;8456;51.136;4.210;2022-08-03T14:54:54;3.08;;;1.52;;
16685;SDS011;8456;51.136;4.210;2022-08-03T14:57:20;5.55;;;1.45;;
16685;SDS011;8456;51.136;4.210;2022-08-03T14:59:46;3.72;;;1.20;;
16685;SDS011;8456;51.136;4.210;2022-08-03T15:02:12;4.28;;;1.05;;
16685;SDS011;8456;51.136;4.210;2022-08-03T15:04:38;11.20;;;1.35;;
16685;SDS011;8456;51.136;4.210;2022-08-03T15:07:04;1.80;;;1.00;;
16685;SDS011;8456;51.136;4.210;2022-08-03T15:09:30;3.30;;;1.20;;
16685;SDS011;8456;51.136;4.210;2022-08-03T15:11:57;2.65;;;0.85;;
16685;SDS011;8456;51.136;4.210;2022-08-03T15:14:22;1.58;;;0.80;;
16685;SDS011;8456;51.136;4.210;2022-08-03T15:16:48;3.83;;;1.00;;
16685;SDS011;8456;51.136;4.210;2022-08-03T15:19:14;6.93;;;1.25;;
16685;SDS011;8456;51.136;4.210;2022-08-03T15:21:41;7.13;;;1.17;;
16685;SDS011;8456;51.136;4.210;2022-08-03T15:24:07;4.43;;;1.17;;
16685;SDS011;8456;51.136;4.210;2022-08-03T15:26:32;2.92;;;1.20;;
16685;SDS011;8456;51.136;4.210;2022-08-03T15:28:58;3.15;;;0.90;;
16685;SDS011;8456;51.136;4.210;2022-08-03T15:31:24;5.35;;;1.27;;
16685;SDS011;8456;51.136;4.210;2022-08-03T15:33:50;2.95;;;1.10;;
16685;SDS011;8456;51.136;4.210;2022-08-03T15:36:16;2.45;;;0.90;;
16685;SDS011;8456;51.136;4.210;2022-08-03T15:38:42;3.70;;;1.10;;